Terminal Aerodrome Forecast
Issued by NWS

Home | Current Version | Previous Version | Text Only | Print | Product List | Glossary On
Versions: 1 2 3 4 5 6 7 8 9 10 11 12 13 14 15 16 17 18
000
FTUS43 KMQT 021534 AAB
TAFSAW
TAF AMD
KSAW 021534Z 0216/0312 23005KT P6SM VCSH SCT010 BKN040
      TEMPO 0216/0217 5SM TSRA BKN010 BKN040CB
     FM021800 01007KT P6SM -SHRA SCT030 BKN040
     FM022200 01006KT P6SM BKN070
     FM030100 33004KT P6SM BKN070=

USA.gov is the U.S. government's official web portal to all federal, state and local government web resources and services.